sensor_id;sensor_type;location;lat;lon;timestamp;P1;durP1;ratioP1;P2;durP2;ratioP2
14760;SDS011;7472;45.396;5.272;2024-01-30T00:00:30;20.35;;;12.32;;
14760;SDS011;7472;45.396;5.272;2024-01-30T00:02:58;18.05;;;11.57;;
14760;SDS011;7472;45.396;5.272;2024-01-30T00:05:26;17.60;;;13.25;;
14760;SDS011;7472;45.396;5.272;2024-01-30T00:07:54;15.57;;;12.38;;
14760;SDS011;7472;45.396;5.272;2024-01-30T00:10:21;15.73;;;11.95;;
14760;SDS011;7472;45.396;5.272;2024-01-30T00:12:49;17.48;;;12.02;;
14760;SDS011;7472;45.396;5.272;2024-01-30T00:15:16;15.73;;;11.80;;
14760;SDS011;7472;45.396;5.272;2024-01-30T00:17:43;16.63;;;12.18;;
14760;SDS011;7472;45.396;5.272;2024-01-30T00:20:11;18.58;;;12.52;;
14760;SDS011;7472;45.396;5.272;2024-01-30T00:22:39;15.55;;;13.35;;
14760;SDS011;7472;45.396;5.272;2024-01-30T00:25:07;20.48;;;14.63;;
14760;SDS011;7472;45.396;5.272;2024-01-30T00:27:35;16.70;;;13.75;;
14760;SDS011;7472;45.396;5.272;2024-01-30T00:30:02;19.65;;;14.82;;
14760;SDS011;7472;45.396;5.272;2024-01-30T00:32:30;20.63;;;15.95;;
14760;SDS011;7472;45.396;5.272;2024-01-30T00:34:57;23.65;;;16.25;;
14760;SDS011;7472;45.396;5.272;2024-01-30T00:37:24;19.80;;;15.20;;
14760;SDS011;7472;45.396;5.272;2024-01-30T00:39:53;21.70;;;16.30;;
14760;SDS011;7472;45.396;5.272;2024-01-30T00:42:20;22.20;;;15.65;;
14760;SDS011;7472;45.396;5.272;2024-01-30T00:44:49;21.77;;;14.38;;
14760;SDS011;7472;45.396;5.272;2024-01-30T00:47:16;21.25;;;16.02;;
14760;SDS011;7472;45.396;5.272;2024-01-30T00:49:43;22.38;;;15.60;;
14760;SDS011;7472;45.396;5.272;2024-01-30T00:52:11;19.80;;;17.70;;
14760;SDS011;7472;45.396;5.272;2024-01-30T00:54:38;17.35;;;15.38;;
14760;SDS011;7472;45.396;5.272;2024-01-30T00:57:07;19.00;;;16.10;;
14760;SDS011;7472;45.396;5.272;2024-01-30T00:59:34;22.20;;;17.40;;
14760;SDS011;7472;45.396;5.272;2024-01-30T01:02:01;22.45;;;15.43;;
14760;SDS011;7472;45.396;5.272;2024-01-30T01:04:29;19.88;;;14.02;;
14760;SDS011;7472;45.396;5.272;2024-01-30T01:06:56;23.00;;;15.07;;
14760;SDS011;7472;45.396;5.272;2024-01-30T01:09:24;28.42;;;15.82;;
14760;SDS011;7472;45.396;5.272;2024-01-30T01:11:51;16.17;;;14.48;;
14760;SDS011;7472;45.396;5.272;2024-01-30T01:14:20;17.27;;;14.82;;
14760;SDS011;7472;45.396;5.272;2024-01-30T01:16:47;21.15;;;15.30;;
14760;SDS011;7472;45.396;5.272;2024-01-30T01:19:15;18.27;;;14.68;;
14760;SDS011;7472;45.396;5.272;2024-01-30T01:21:42;18.73;;;15.07;;
14760;SDS011;7472;45.396;5.272;2024-01-30T01:24:09;19.13;;;13.88;;
14760;SDS011;7472;45.396;5.272;2024-01-30T01:26:37;18.05;;;15.10;;
14760;SDS011;7472;45.396;5.272;2024-01-30T01:29:04;20.17;;;15.27;;
14760;SDS011;7472;45.396;5.272;2024-01-30T01:31:36;19.27;;;14.18;;
14760;SDS011;7472;45.396;5.272;2024-01-30T01:34:08;20.25;;;15.00;;
14760;SDS011;7472;45.396;5.272;2024-01-30T01:36:36;16.77;;;13.73;;
14760;SDS011;7472;45.396;5.272;2024-01-30T01:39:03;21.23;;;14.85;;
14760;SDS011;7472;45.396;5.272;2024-01-30T01:41:30;18.33;;;14.70;;
14760;SDS011;7472;45.396;5.272;2024-01-30T01:43:58;22.20;;;14.88;;
14760;SDS011;7472;45.396;5.272;2024-01-30T01:46:26;17.15;;;14.82;;
14760;SDS011;7472;45.396;5.272;2024-01-30T01:48:55;22.02;;;14.65;;
14760;SDS011;7472;45.396;5.272;2024-01-30T01:51:22;20.92;;;14.75;;
14760;SDS011;7472;45.396;5.272;2024-01-30T01:53:51;18.88;;;15.10;;
14760;SDS011;7472;45.396;5.272;2024-01-30T01:56:18;23.65;;;15.00;;
14760;SDS011;7472;45.396;5.272;2024-01-30T01:58:46;18.90;;;14.43;;
14760;SDS011;7472;45.396;5.272;2024-01-30T02:01:14;21.52;;;14.43;;
14760;SDS011;7472;45.396;5.272;2024-01-30T02:03:43;19.15;;;14.98;;
14760;SDS011;7472;45.396;5.272;2024-01-30T02:06:12;15.18;;;13.43;;
14760;SDS011;7472;45.396;5.272;2024-01-30T02:08:39;16.50;;;13.70;;
14760;SDS011;7472;45.396;5.272;2024-01-30T02:11:07;19.70;;;14.77;;
14760;SDS011;7472;45.396;5.272;2024-01-30T02:13:35;20.27;;;15.15;;
14760;SDS011;7472;45.396;5.272;2024-01-30T02:16:02;22.58;;;15.45;;
14760;SDS011;7472;45.396;5.272;2024-01-30T02:18:30;20.35;;;14.98;;
14760;SDS011;7472;45.396;5.272;2024-01-30T02:20:58;21.25;;;14.38;;
14760;SDS011;7472;45.396;5.272;2024-01-30T02:23:28;16.73;;;11.95;;
14760;SDS011;7472;45.396;5.272;2024-01-30T02:25:56;18.73;;;13.48;;
14760;SDS011;7472;45.396;5.272;2024-01-30T02:28:23;19.83;;;14.38;;
14760;SDS011;7472;45.396;5.272;2024-01-30T02:30:50;16.63;;;14.40;;
14760;SDS011;7472;45.396;5.272;2024-01-30T02:33:18;19.55;;;13.82;;
14760;SDS011;7472;45.396;5.272;2024-01-30T02:35:47;18.08;;;14.20;;
14760;SDS011;7472;45.396;5.272;2024-01-30T02:38:14;21.17;;;15.68;;
14760;SDS011;7472;45.396;5.272;2024-01-30T02:40:43;19.20;;;15.20;;
14760;SDS011;7472;45.396;5.272;2024-01-30T02:43:11;18.20;;;13.80;;
14760;SDS011;7472;45.396;5.272;2024-01-30T02:45:38;16.67;;;14.50;;
14760;SDS011;7472;45.396;5.272;2024-01-30T02:48:06;18.63;;;13.10;;
14760;SDS011;7472;45.396;5.272;2024-01-30T02:50:33;16.95;;;12.30;;
14760;SDS011;7472;45.396;5.272;2024-01-30T02:53:00;18.90;;;14.50;;
14760;SDS011;7472;45.396;5.272;2024-01-30T02:55:28;17.50;;;14.20;;
14760;SDS011;7472;45.396;5.272;2024-01-30T02:57:56;20.48;;;14.95;;
14760;SDS011;7472;45.396;5.272;2024-01-30T03:00:23;21.08;;;15.43;;
14760;SDS011;7472;45.396;5.272;2024-01-30T03:02:51;20.92;;;15.43;;
14760;SDS011;7472;45.396;5.272;2024-01-30T03:05:18;19.60;;;13.15;;
14760;SDS011;7472;45.396;5.272;2024-01-30T03:07:45;19.52;;;14.07;;
14760;SDS011;7472;45.396;5.272;2024-01-30T03:10:12;17.50;;;13.00;;
14760;SDS011;7472;45.396;5.272;2024-01-30T03:12:39;22.30;;;13.82;;
14760;SDS011;7472;45.396;5.272;2024-01-30T03:15:08;21.40;;;14.80;;
14760;SDS011;7472;45.396;5.272;2024-01-30T03:17:36;15.77;;;13.85;;
14760;SDS011;7472;45.396;5.272;2024-01-30T03:20:03;16.08;;;12.70;;
14760;SDS011;7472;45.396;5.272;2024-01-30T03:22:31;17.83;;;13.50;;
14760;SDS011;7472;45.396;5.272;2024-01-30T03:24:58;17.98;;;13.90;;
14760;SDS011;7472;45.396;5.272;2024-01-30T03:27:25;20.88;;;13.38;;
14760;SDS011;7472;45.396;5.272;2024-01-30T03:29:54;19.75;;;14.18;;
14760;SDS011;7472;45.396;5.272;2024-01-30T03:32:22;19.15;;;13.27;;
14760;SDS011;7472;45.396;5.272;2024-01-30T03:34:49;17.55;;;12.93;;
14760;SDS011;7472;45.396;5.272;2024-01-30T03:37:16;22.20;;;14.00;;
14760;SDS011;7472;45.396;5.272;2024-01-30T03:39:44;20.08;;;13.00;;
14760;SDS011;7472;45.396;5.272;2024-01-30T03:42:11;16.20;;;13.38;;
14760;SDS011;7472;45.396;5.272;2024-01-30T03:44:38;18.92;;;12.75;;
14760;SDS011;7472;45.396;5.272;2024-01-30T03:47:06;17.88;;;12.25;;
14760;SDS011;7472;45.396;5.272;2024-01-30T03:49:34;16.13;;;12.75;;
14760;SDS011;7472;45.396;5.272;2024-01-30T03:52:02;17.02;;;13.80;;
14760;SDS011;7472;45.396;5.272;2024-01-30T03:54:29;19.38;;;13.35;;
14760;SDS011;7472;45.396;5.272;2024-01-30T03:56:56;18.88;;;13.60;;
14760;SDS011;7472;45.396;5.272;2024-01-30T03:59:24;17.15;;;14.10;;
14760;SDS011;7472;45.396;5.272;2024-01-30T04:01:51;15.02;;;13.10;;
14760;SDS011;7472;45.396;5.272;2024-01-30T04:04:18;17.25;;;14.15;;
14760;SDS011;7472;45.396;5.272;2024-01-30T04:06:47;23.10;;;13.90;;
14760;SDS011;7472;45.396;5.272;2024-01-30T04:09:14;16.08;;;13.65;;
14760;SDS011;7472;45.396;5.272;2024-01-30T04:11:41;16.23;;;14.10;;
14760;SDS011;7472;45.396;5.272;2024-01-30T04:14:08;18.58;;;13.75;;
14760;SDS011;7472;45.396;5.272;2024-01-30T04:16:36;16.23;;;13.40;;
14760;SDS011;7472;45.396;5.272;2024-01-30T04:19:03;21.90;;;13.73;;
14760;SDS011;7472;45.396;5.272;2024-01-30T04:21:30;18.83;;;14.70;;
14760;SDS011;7472;45.396;5.272;2024-01-30T04:23:59;19.73;;;13.45;;
14760;SDS011;7472;45.396;5.272;2024-01-30T04:26:26;17.25;;;14.23;;
14760;SDS011;7472;45.396;5.272;2024-01-30T04:28:53;19.83;;;14.15;;
14760;SDS011;7472;45.396;5.272;2024-01-30T04:31:20;18.08;;;13.48;;
14760;SDS011;7472;45.396;5.272;2024-01-30T04:33:48;20.75;;;13.98;;
14760;SDS011;7472;45.396;5.272;2024-01-30T04:36:15;17.80;;;14.38;;
14760;SDS011;7472;45.396;5.272;2024-01-30T04:38:43;21.50;;;13.60;;
14760;SDS011;7472;45.396;5.272;2024-01-30T04:41:11;19.38;;;13.40;;
14760;SDS011;7472;45.396;5.272;2024-01-30T04:43:38;16.90;;;14.90;;
14760;SDS011;7472;45.396;5.272;2024-01-30T04:46:06;15.93;;;13.40;;
14760;SDS011;7472;45.396;5.272;2024-01-30T04:48:33;16.77;;;14.13;;
14760;SDS011;7472;45.396;5.272;2024-01-30T04:51:00;18.67;;;15.13;;
14760;SDS011;7472;45.396;5.272;2024-01-30T04:53:29;18.85;;;15.10;;
14760;SDS011;7472;45.396;5.272;2024-01-30T04:55:57;22.73;;;15.25;;
14760;SDS011;7472;45.396;5.272;2024-01-30T04:58:25;18.42;;;14.40;;
14760;SDS011;7472;45.396;5.272;2024-01-30T05:00:53;23.50;;;14.88;;
14760;SDS011;7472;45.396;5.272;2024-01-30T05:03:20;19.27;;;14.70;;
14760;SDS011;7472;45.396;5.272;2024-01-30T05:05:49;17.27;;;14.85;;
14760;SDS011;7472;45.396;5.272;2024-01-30T05:08:16;22.48;;;16.42;;
14760;SDS011;7472;45.396;5.272;2024-01-30T05:10:44;19.40;;;16.70;;
14760;SDS011;7472;45.396;5.272;2024-01-30T05:13:11;21.17;;;17.70;;
14760;SDS011;7472;45.396;5.272;2024-01-30T05:15:41;24.70;;;18.17;;
14760;SDS011;7472;45.396;5.272;2024-01-30T05:18:08;22.52;;;17.08;;
14760;SDS011;7472;45.396;5.272;2024-01-30T05:20:35;22.63;;;17.88;;
14760;SDS011;7472;45.396;5.272;2024-01-30T05:23:03;26.15;;;18.70;;
14760;SDS011;7472;45.396;5.272;2024-01-30T05:25:30;24.45;;;18.25;;
14760;SDS011;7472;45.396;5.272;2024-01-30T05:27:57;23.73;;;19.40;;
14760;SDS011;7472;45.396;5.272;2024-01-30T05:30:25;23.33;;;17.80;;
14760;SDS011;7472;45.396;5.272;2024-01-30T05:32:53;20.52;;;17.92;;
14760;SDS011;7472;45.396;5.272;2024-01-30T05:35:20;22.33;;;18.08;;
14760;SDS011;7472;45.396;5.272;2024-01-30T05:37:48;22.80;;;18.50;;
14760;SDS011;7472;45.396;5.272;2024-01-30T05:40:15;21.15;;;17.33;;
14760;SDS011;7472;45.396;5.272;2024-01-30T05:42:42;25.65;;;17.73;;
14760;SDS011;7472;45.396;5.272;2024-01-30T05:45:09;24.00;;;17.55;;
14760;SDS011;7472;45.396;5.272;2024-01-30T05:47:37;20.77;;;17.77;;
14760;SDS011;7472;45.396;5.272;2024-01-30T05:50:07;22.33;;;17.55;;
14760;SDS011;7472;45.396;5.272;2024-01-30T05:52:34;21.88;;;17.70;;
14760;SDS011;7472;45.396;5.272;2024-01-30T05:55:01;20.95;;;17.65;;
14760;SDS011;7472;45.396;5.272;2024-01-30T05:57:28;24.05;;;17.33;;
14760;SDS011;7472;45.396;5.272;2024-01-30T05:59:56;22.30;;;17.52;;
14760;SDS011;7472;45.396;5.272;2024-01-30T06:02:23;31.60;;;19.17;;
14760;SDS011;7472;45.396;5.272;2024-01-30T06:04:50;22.48;;;17.38;;
14760;SDS011;7472;45.396;5.272;2024-01-30T06:07:19;23.52;;;18.35;;
14760;SDS011;7472;45.396;5.272;2024-01-30T06:09:47;19.98;;;16.80;;
14760;SDS011;7472;45.396;5.272;2024-01-30T06:12:14;22.38;;;17.23;;
14760;SDS011;7472;45.396;5.272;2024-01-30T06:14:42;21.65;;;17.02;;
14760;SDS011;7472;45.396;5.272;2024-01-30T06:17:09;22.02;;;18.00;;
14760;SDS011;7472;45.396;5.272;2024-01-30T06:19:37;26.75;;;19.23;;
14760;SDS011;7472;45.396;5.272;2024-01-30T06:22:04;27.15;;;19.67;;
14760;SDS011;7472;45.396;5.272;2024-01-30T06:24:33;23.95;;;18.17;;
14760;SDS011;7472;45.396;5.272;2024-01-30T06:27:01;22.77;;;18.10;;
14760;SDS011;7472;45.396;5.272;2024-01-30T06:29:28;24.10;;;20.75;;
14760;SDS011;7472;45.396;5.272;2024-01-30T06:31:55;26.80;;;21.42;;
14760;SDS011;7472;45.396;5.272;2024-01-30T06:34:23;26.33;;;20.40;;
14760;SDS011;7472;45.396;5.272;2024-01-30T06:36:51;25.13;;;20.75;;
14760;SDS011;7472;45.396;5.272;2024-01-30T06:39:18;25.05;;;20.27;;
14760;SDS011;7472;45.396;5.272;2024-01-30T06:41:47;25.88;;;21.20;;
14760;SDS011;7472;45.396;5.272;2024-01-30T06:44:14;24.02;;;21.40;;
14760;SDS011;7472;45.396;5.272;2024-01-30T06:46:41;25.85;;;20.85;;
14760;SDS011;7472;45.396;5.272;2024-01-30T06:49:09;22.55;;;18.63;;
14760;SDS011;7472;45.396;5.272;2024-01-30T06:51:36;25.95;;;19.98;;
14760;SDS011;7472;45.396;5.272;2024-01-30T06:54:04;24.67;;;19.30;;
14760;SDS011;7472;45.396;5.272;2024-01-30T06:56:31;26.48;;;18.58;;
14760;SDS011;7472;45.396;5.272;2024-01-30T06:59:00;21.77;;;19.33;;
14760;SDS011;7472;45.396;5.272;2024-01-30T07:01:27;22.67;;;19.90;;
14760;SDS011;7472;45.396;5.272;2024-01-30T07:03:55;28.42;;;19.40;;
14760;SDS011;7472;45.396;5.272;2024-01-30T07:06:22;23.67;;;19.45;;
14760;SDS011;7472;45.396;5.272;2024-01-30T07:08:50;23.65;;;19.60;;
14760;SDS011;7472;45.396;5.272;2024-01-30T07:11:18;26.83;;;20.15;;
14760;SDS011;7472;45.396;5.272;2024-01-30T07:13:47;25.40;;;20.27;;
14760;SDS011;7472;45.396;5.272;2024-01-30T07:16:16;23.42;;;19.42;;
14760;SDS011;7472;45.396;5.272;2024-01-30T07:18:43;24.67;;;17.35;;
14760;SDS011;7472;45.396;5.272;2024-01-30T07:21:11;22.50;;;19.30;;
14760;SDS011;7472;45.396;5.272;2024-01-30T07:23:38;32.50;;;22.05;;
14760;SDS011;7472;45.396;5.272;2024-01-30T07:26:07;24.52;;;19.00;;
14760;SDS011;7472;45.396;5.272;2024-01-30T07:28:34;28.13;;;19.85;;
14760;SDS011;7472;45.396;5.272;2024-01-30T07:31:02;24.35;;;19.05;;
14760;SDS011;7472;45.396;5.272;2024-01-30T07:33:31;25.85;;;19.92;;
14760;SDS011;7472;45.396;5.272;2024-01-30T07:35:58;23.27;;;19.85;;
14760;SDS011;7472;45.396;5.272;2024-01-30T07:38:26;24.25;;;17.92;;
14760;SDS011;7472;45.396;5.272;2024-01-30T07:40:53;28.80;;;22.40;;
14760;SDS011;7472;45.396;5.272;2024-01-30T07:43:20;43.70;;;38.90;;
14760;SDS011;7472;45.396;5.272;2024-01-30T07:45:48;26.92;;;21.63;;
14760;SDS011;7472;45.396;5.272;2024-01-30T07:48:15;25.45;;;18.17;;
14760;SDS011;7472;45.396;5.272;2024-01-30T07:50:44;23.27;;;16.35;;
14760;SDS011;7472;45.396;5.272;2024-01-30T07:53:11;23.67;;;19.15;;
14760;SDS011;7472;45.396;5.272;2024-01-30T07:55:41;26.95;;;21.60;;
14760;SDS011;7472;45.396;5.272;2024-01-30T07:58:11;23.15;;;20.70;;
14760;SDS011;7472;45.396;5.272;2024-01-30T08:00:39;23.33;;;18.20;;
14760;SDS011;7472;45.396;5.272;2024-01-30T08:03:06;24.02;;;17.05;;
14760;SDS011;7472;45.396;5.272;2024-01-30T08:05:33;21.90;;;18.00;;
14760;SDS011;7472;45.396;5.272;2024-01-30T08:08:02;19.02;;;14.98;;
14760;SDS011;7472;45.396;5.272;2024-01-30T08:10:30;20.42;;;15.25;;
14760;SDS011;7472;45.396;5.272;2024-01-30T08:12:57;21.80;;;15.25;;
14760;SDS011;7472;45.396;5.272;2024-01-30T08:15:24;17.20;;;15.27;;
14760;SDS011;7472;45.396;5.272;2024-01-30T08:17:52;19.40;;;15.45;;
14760;SDS011;7472;45.396;5.272;2024-01-30T08:20:24;17.17;;;15.35;;
14760;SDS011;7472;45.396;5.272;2024-01-30T08:22:51;18.30;;;14.77;;
14760;SDS011;7472;45.396;5.272;2024-01-30T08:25:20;16.70;;;14.70;;
14760;SDS011;7472;45.396;5.272;2024-01-30T08:27:48;17.20;;;15.35;;
14760;SDS011;7472;45.396;5.272;2024-01-30T08:30:15;19.05;;;14.70;;
14760;SDS011;7472;45.396;5.272;2024-01-30T08:32:42;20.30;;;14.27;;
14760;SDS011;7472;45.396;5.272;2024-01-30T08:35:10;15.80;;;13.68;;
14760;SDS011;7472;45.396;5.272;2024-01-30T08:37:38;17.63;;;12.70;;
14760;SDS011;7472;45.396;5.272;2024-01-30T08:40:06;17.50;;;12.45;;
14760;SDS011;7472;45.396;5.272;2024-01-30T08:42:35;16.25;;;11.70;;
14760;SDS011;7472;45.396;5.272;2024-01-30T08:45:03;12.90;;;10.80;;
14760;SDS011;7472;45.396;5.272;2024-01-30T08:47:31;14.05;;;10.75;;
14760;SDS011;7472;45.396;5.272;2024-01-30T08:49:58;13.88;;;11.70;;
14760;SDS011;7472;45.396;5.272;2024-01-30T08:52:25;15.05;;;10.05;;
14760;SDS011;7472;45.396;5.272;2024-01-30T08:54:53;15.20;;;8.70;;
14760;SDS011;7472;45.396;5.272;2024-01-30T08:57:20;12.73;;;9.20;;
14760;SDS011;7472;45.396;5.272;2024-01-30T08:59:49;12.43;;;9.35;;
14760;SDS011;7472;45.396;5.272;2024-01-30T09:02:16;10.07;;;8.50;;
14760;SDS011;7472;45.396;5.272;2024-01-30T09:04:44;10.20;;;8.05;;
14760;SDS011;7472;45.396;5.272;2024-01-30T09:07:11;10.27;;;7.85;;
14760;SDS011;7472;45.396;5.272;2024-01-30T09:09:39;9.88;;;7.38;;
14760;SDS011;7472;45.396;5.272;2024-01-30T09:12:07;9.93;;;7.78;;
14760;SDS011;7472;45.396;5.272;2024-01-30T09:14:36;12.18;;;8.27;;
14760;SDS011;7472;45.396;5.272;2024-01-30T09:17:05;12.02;;;8.98;;
14760;SDS011;7472;45.396;5.272;2024-01-30T09:19:33;15.23;;;8.55;;
14760;SDS011;7472;45.396;5.272;2024-01-30T09:22:00;11.43;;;8.27;;
14760;SDS011;7472;45.396;5.272;2024-01-30T09:24:28;9.43;;;7.68;;
14760;SDS011;7472;45.396;5.272;2024-01-30T09:26:55;9.85;;;8.15;;
14760;SDS011;7472;45.396;5.272;2024-01-30T09:29:22;9.40;;;7.95;;
14760;SDS011;7472;45.396;5.272;2024-01-30T09:31:50;10.55;;;7.68;;
14760;SDS011;7472;45.396;5.272;2024-01-30T09:34:18;10.45;;;7.45;;
14760;SDS011;7472;45.396;5.272;2024-01-30T09:36:46;8.48;;;7.53;;
14760;SDS011;7472;45.396;5.272;2024-01-30T09:39:13;10.95;;;7.88;;
14760;SDS011;7472;45.396;5.272;2024-01-30T09:41:44;15.77;;;7.88;;
14760;SDS011;7472;45.396;5.272;2024-01-30T09:44:12;9.50;;;7.22;;
14760;SDS011;7472;45.396;5.272;2024-01-30T09:46:40;8.07;;;6.55;;
14760;SDS011;7472;45.396;5.272;2024-01-30T09:49:08;10.23;;;6.95;;
14760;SDS011;7472;45.396;5.272;2024-01-30T09:51:37;8.63;;;7.53;;
14760;SDS011;7472;45.396;5.272;2024-01-30T09:54:05;14.77;;;7.72;;
14760;SDS011;7472;45.396;5.272;2024-01-30T09:56:35;8.30;;;7.43;;
14760;SDS011;7472;45.396;5.272;2024-01-30T09:59:02;9.23;;;7.63;;
14760;SDS011;7472;45.396;5.272;2024-01-30T10:01:29;13.60;;;7.85;;
14760;SDS011;7472;45.396;5.272;2024-01-30T10:03:58;9.38;;;7.13;;
14760;SDS011;7472;45.396;5.272;2024-01-30T10:06:25;7.75;;;6.82;;
14760;SDS011;7472;45.396;5.272;2024-01-30T10:08:54;11.05;;;7.15;;
14760;SDS011;7472;45.396;5.272;2024-01-30T10:11:22;8.02;;;6.45;;
14760;SDS011;7472;45.396;5.272;2024-01-30T10:13:49;7.70;;;6.20;;
14760;SDS011;7472;45.396;5.272;2024-01-30T10:16:17;8.35;;;5.75;;
14760;SDS011;7472;45.396;5.272;2024-01-30T10:18:44;7.00;;;5.85;;
14760;SDS011;7472;45.396;5.272;2024-01-30T10:21:12;10.52;;;6.43;;
14760;SDS011;7472;45.396;5.272;2024-01-30T10:23:40;9.70;;;7.13;;
14760;SDS011;7472;45.396;5.272;2024-01-30T10:26:08;7.05;;;6.35;;
14760;SDS011;7472;45.396;5.272;2024-01-30T10:28:36;7.57;;;6.07;;
14760;SDS011;7472;45.396;5.272;2024-01-30T10:31:03;6.40;;;5.60;;
14760;SDS011;7472;45.396;5.272;2024-01-30T10:33:31;9.20;;;6.47;;
14760;SDS011;7472;45.396;5.272;2024-01-30T10:36:00;7.07;;;6.03;;
14760;SDS011;7472;45.396;5.272;2024-01-30T10:38:28;15.00;;;6.82;;
14760;SDS011;7472;45.396;5.272;2024-01-30T10:40:56;8.30;;;5.45;;
14760;SDS011;7472;45.396;5.272;2024-01-30T10:43:26;8.20;;;6.32;;
14760;SDS011;7472;45.396;5.272;2024-01-30T10:45:56;9.98;;;6.22;;
14760;SDS011;7472;45.396;5.272;2024-01-30T10:48:25;11.48;;;5.70;;
14760;SDS011;7472;45.396;5.272;2024-01-30T10:50:54;8.57;;;6.28;;
14760;SDS011;7472;45.396;5.272;2024-01-30T10:53:22;8.30;;;6.13;;
14760;SDS011;7472;45.396;5.272;2024-01-30T10:55:50;6.60;;;5.35;;
14760;SDS011;7472;45.396;5.272;2024-01-30T10:58:18;8.50;;;5.80;;
14760;SDS011;7472;45.396;5.272;2024-01-30T11:00:47;8.35;;;5.88;;
14760;SDS011;7472;45.396;5.272;2024-01-30T11:03:16;9.80;;;5.82;;
14760;SDS011;7472;45.396;5.272;2024-01-30T11:05:48;11.10;;;6.18;;
14760;SDS011;7472;45.396;5.272;2024-01-30T11:08:22;8.40;;;5.28;;
14760;SDS011;7472;45.396;5.272;2024-01-30T11:10:49;7.43;;;5.35;;
14760;SDS011;7472;45.396;5.272;2024-01-30T11:13:18;9.60;;;5.07;;
14760;SDS011;7472;45.396;5.272;2024-01-30T11:15:48;8.27;;;5.47;;
14760;SDS011;7472;45.396;5.272;2024-01-30T11:18:22;7.05;;;4.60;;
14760;SDS011;7472;45.396;5.272;2024-01-30T11:20:50;6.45;;;5.18;;
14760;SDS011;7472;45.396;5.272;2024-01-30T11:23:18;7.22;;;5.00;;
14760;SDS011;7472;45.396;5.272;2024-01-30T11:25:45;6.55;;;5.03;;
14760;SDS011;7472;45.396;5.272;2024-01-30T11:28:14;5.45;;;4.15;;
14760;SDS011;7472;45.396;5.272;2024-01-30T11:30:41;6.65;;;5.10;;
14760;SDS011;7472;45.396;5.272;2024-01-30T11:33:12;6.45;;;4.38;;
14760;SDS011;7472;45.396;5.272;2024-01-30T11:35:39;9.65;;;4.60;;
14760;SDS011;7472;45.396;5.272;2024-01-30T11:38:07;5.55;;;4.55;;
14760;SDS011;7472;45.396;5.272;2024-01-30T11:40:36;5.45;;;4.10;;
14760;SDS011;7472;45.396;5.272;2024-01-30T11:43:04;4.70;;;3.78;;
14760;SDS011;7472;45.396;5.272;2024-01-30T11:45:32;7.13;;;4.25;;
14760;SDS011;7472;45.396;5.272;2024-01-30T11:47:59;6.07;;;4.90;;
14760;SDS011;7472;45.396;5.272;2024-01-30T11:50:30;7.18;;;4.43;;
14760;SDS011;7472;45.396;5.272;2024-01-30T11:52:58;3.97;;;3.25;;
14760;SDS011;7472;45.396;5.272;2024-01-30T11:55:25;6.25;;;3.58;;
14760;SDS011;7472;45.396;5.272;2024-01-30T11:57:54;8.25;;;4.68;;
14760;SDS011;7472;45.396;5.272;2024-01-30T12:00:22;5.20;;;3.55;;
14760;SDS011;7472;45.396;5.272;2024-01-30T12:02:49;4.47;;;3.78;;
14760;SDS011;7472;45.396;5.272;2024-01-30T12:05:20;8.77;;;3.55;;
14760;SDS011;7472;45.396;5.272;2024-01-30T12:07:49;4.82;;;3.38;;
14760;SDS011;7472;45.396;5.272;2024-01-30T12:10:17;4.50;;;3.42;;
14760;SDS011;7472;45.396;5.272;2024-01-30T12:12:45;5.85;;;4.00;;
14760;SDS011;7472;45.396;5.272;2024-01-30T12:15:13;4.82;;;3.20;;
14760;SDS011;7472;45.396;5.272;2024-01-30T12:17:40;7.05;;;3.63;;
14760;SDS011;7472;45.396;5.272;2024-01-30T12:20:08;4.35;;;3.35;;
14760;SDS011;7472;45.396;5.272;2024-01-30T12:22:36;4.85;;;3.20;;
14760;SDS011;7472;45.396;5.272;2024-01-30T12:25:07;5.75;;;2.90;;
14760;SDS011;7472;45.396;5.272;2024-01-30T12:27:33;4.13;;;2.58;;
14760;SDS011;7472;45.396;5.272;2024-01-30T12:30:01;4.20;;;2.70;;
14760;SDS011;7472;45.396;5.272;2024-01-30T12:32:28;3.47;;;2.85;;
14760;SDS011;7472;45.396;5.272;2024-01-30T12:34:55;3.47;;;2.97;;
14760;SDS011;7472;45.396;5.272;2024-01-30T12:37:23;4.97;;;3.17;;
14760;SDS011;7472;45.396;5.272;2024-01-30T12:39:51;4.45;;;2.97;;
14760;SDS011;7472;45.396;5.272;2024-01-30T12:42:20;3.95;;;3.10;;
14760;SDS011;7472;45.396;5.272;2024-01-30T12:44:48;3.42;;;2.58;;
14760;SDS011;7472;45.396;5.272;2024-01-30T12:47:15;4.93;;;2.65;;
14760;SDS011;7472;45.396;5.272;2024-01-30T12:49:43;4.03;;;2.55;;
14760;SDS011;7472;45.396;5.272;2024-01-30T12:52:10;4.78;;;2.40;;
14760;SDS011;7472;45.396;5.272;2024-01-30T12:54:38;3.45;;;3.05;;
14760;SDS011;7472;45.396;5.272;2024-01-30T12:57:05;4.80;;;2.90;;
14760;SDS011;7472;45.396;5.272;2024-01-30T12:59:34;3.38;;;2.90;;
14760;SDS011;7472;45.396;5.272;2024-01-30T13:02:01;5.90;;;3.13;;
14760;SDS011;7472;45.396;5.272;2024-01-30T13:04:29;4.28;;;2.42;;
14760;SDS011;7472;45.396;5.272;2024-01-30T13:06:56;6.47;;;3.33;;
14760;SDS011;7472;45.396;5.272;2024-01-30T13:09:25;5.63;;;2.97;;
14760;SDS011;7472;45.396;5.272;2024-01-30T13:11:53;4.40;;;2.70;;
14760;SDS011;7472;45.396;5.272;2024-01-30T13:14:20;4.95;;;2.63;;
14760;SDS011;7472;45.396;5.272;2024-01-30T13:16:49;4.90;;;2.97;;
14760;SDS011;7472;45.396;5.272;2024-01-30T13:19:16;6.07;;;3.33;;
14760;SDS011;7472;45.396;5.272;2024-01-30T13:21:44;5.90;;;2.92;;
14760;SDS011;7472;45.396;5.272;2024-01-30T13:24:12;4.60;;;2.90;;
14760;SDS011;7472;45.396;5.272;2024-01-30T13:26:40;3.15;;;2.50;;
14760;SDS011;7472;45.396;5.272;2024-01-30T13:29:07;4.70;;;1.90;;
14760;SDS011;7472;45.396;5.272;2024-01-30T13:31:35;2.95;;;2.15;;
14760;SDS011;7472;45.396;5.272;2024-01-30T13:34:03;3.08;;;2.20;;
14760;SDS011;7472;45.396;5.272;2024-01-30T13:36:32;4.50;;;2.22;;
14760;SDS011;7472;45.396;5.272;2024-01-30T13:38:59;2.90;;;2.30;;
14760;SDS011;7472;45.396;5.272;2024-01-30T13:41:26;5.00;;;2.63;;
14760;SDS011;7472;45.396;5.272;2024-01-30T13:43:55;4.28;;;2.30;;
14760;SDS011;7472;45.396;5.272;2024-01-30T13:46:22;5.03;;;2.22;;
14760;SDS011;7472;45.396;5.272;2024-01-30T13:48:50;4.57;;;2.30;;
14760;SDS011;7472;45.396;5.272;2024-01-30T13:51:19;2.38;;;2.05;;
14760;SDS011;7472;45.396;5.272;2024-01-30T13:53:46;3.75;;;2.47;;
14760;SDS011;7472;45.396;5.272;2024-01-30T13:56:15;4.30;;;2.58;;
14760;SDS011;7472;45.396;5.272;2024-01-30T13:58:42;5.35;;;2.78;;
14760;SDS011;7472;45.396;5.272;2024-01-30T14:01:10;2.70;;;2.10;;
14760;SDS011;7472;45.396;5.272;2024-01-30T14:03:37;3.60;;;2.22;;
14760;SDS011;7472;45.396;5.272;2024-01-30T14:06:05;3.50;;;1.95;;
14760;SDS011;7472;45.396;5.272;2024-01-30T14:08:33;4.03;;;2.38;;
14760;SDS011;7472;45.396;5.272;2024-01-30T14:11:01;5.60;;;2.75;;
14760;SDS011;7472;45.396;5.272;2024-01-30T14:13:28;2.55;;;2.05;;
14760;SDS011;7472;45.396;5.272;2024-01-30T14:15:56;4.32;;;2.60;;
14760;SDS011;7472;45.396;5.272;2024-01-30T14:18:23;3.13;;;2.30;;
14760;SDS011;7472;45.396;5.272;2024-01-30T14:20:51;4.90;;;3.05;;
14760;SDS011;7472;45.396;5.272;2024-01-30T14:23:19;4.80;;;2.30;;
14760;SDS011;7472;45.396;5.272;2024-01-30T14:25:48;3.58;;;2.55;;
14760;SDS011;7472;45.396;5.272;2024-01-30T14:28:16;3.22;;;2.55;;
14760;SDS011;7472;45.396;5.272;2024-01-30T14:30:44;3.50;;;2.55;;
14760;SDS011;7472;45.396;5.272;2024-01-30T14:33:12;4.10;;;2.30;;
14760;SDS011;7472;45.396;5.272;2024-01-30T14:35:39;3.67;;;2.67;;
14760;SDS011;7472;45.396;5.272;2024-01-30T14:38:06;3.75;;;3.05;;
14760;SDS011;7472;45.396;5.272;2024-01-30T14:40:35;3.40;;;3.10;;
14760;SDS011;7472;45.396;5.272;2024-01-30T14:43:03;2.83;;;2.58;;
14760;SDS011;7472;45.396;5.272;2024-01-30T14:45:31;4.55;;;2.75;;